sensor_id;sensor_type;location;lat;lon;timestamp;temperature;humidity
49489;SHT31;35382;51.484;11.476;2023-06-05T00:00:11;12.72;58.96
49489;SHT31;35382;51.484;11.476;2023-06-05T00:01:55;12.84;58.68
49489;SHT31;35382;51.484;11.476;2023-06-05T00:03:36;12.72;61.00
49489;SHT31;35382;51.484;11.476;2023-06-05T00:05:17;12.78;58.51
49489;SHT31;35382;51.484;11.476;2023-06-05T00:06:59;12.78;59.55
49489;SHT31;35382;51.484;11.476;2023-06-05T00:08:40;12.94;58.07
49489;SHT31;35382;51.484;11.476;2023-06-05T00:10:21;12.87;58.77
49489;SHT31;35382;51.484;11.476;2023-06-05T00:12:02;12.81;59.01
49489;SHT31;35382;51.484;11.476;2023-06-05T00:13:44;12.67;59.62
49489;SHT31;35382;51.484;11.476;2023-06-05T00:15:25;12.75;61.07
49489;SHT31;35382;51.484;11.476;2023-06-05T00:17:05;12.67;60.23
49489;SHT31;35382;51.484;11.476;2023-06-05T00:18:47;12.40;60.24
49489;SHT31;35382;51.484;11.476;2023-06-05T00:20:29;12.48;60.45
49489;SHT31;35382;51.484;11.476;2023-06-05T00:22:10;12.55;60.71
49489;SHT31;35382;51.484;11.476;2023-06-05T00:23:51;12.55;60.52
49489;SHT31;35382;51.484;11.476;2023-06-05T00:25:31;12.64;59.35
49489;SHT31;35382;51.484;11.476;2023-06-05T00:27:12;12.61;60.06
49489;SHT31;35382;51.484;11.476;2023-06-05T00:28:53;12.64;59.67
49489;SHT31;35382;51.484;11.476;2023-06-05T00:30:34;12.42;60.49
49489;SHT31;35382;51.484;11.476;2023-06-05T00:32:17;12.52;59.65
49489;SHT31;35382;51.484;11.476;2023-06-05T00:33:58;12.45;59.12
49489;SHT31;35382;51.484;11.476;2023-06-05T00:35:40;12.58;58.89
49489;SHT31;35382;51.484;11.476;2023-06-05T00:37:20;12.77;58.79
49489;SHT31;35382;51.484;11.476;2023-06-05T00:39:01;12.62;59.66
49489;SHT31;35382;51.484;11.476;2023-06-05T00:40:42;12.60;60.53
49489;SHT31;35382;51.484;11.476;2023-06-05T00:42:23;12.57;59.58
49489;SHT31;35382;51.484;11.476;2023-06-05T00:44:04;12.34;61.03
49489;SHT31;35382;51.484;11.476;2023-06-05T00:45:45;12.37;60.36
49489;SHT31;35382;51.484;11.476;2023-06-05T00:47:26;12.30;60.25
49489;SHT31;35382;51.484;11.476;2023-06-05T00:49:07;12.40;60.00
49489;SHT31;35382;51.484;11.476;2023-06-05T00:50:48;12.27;60.16
49489;SHT31;35382;51.484;11.476;2023-06-05T00:52:32;12.17;60.85
49489;SHT31;35382;51.484;11.476;2023-06-05T00:54:13;12.28;61.37
49489;SHT31;35382;51.484;11.476;2023-06-05T00:55:58;12.27;60.78
49489;SHT31;35382;51.484;11.476;2023-06-05T00:57:39;12.16;61.35
49489;SHT31;35382;51.484;11.476;2023-06-05T00:59:20;12.18;61.74
49489;SHT31;35382;51.484;11.476;2023-06-05T01:01:02;12.14;61.08
49489;SHT31;35382;51.484;11.476;2023-06-05T01:02:44;12.07;61.65
49489;SHT31;35382;51.484;11.476;2023-06-05T01:04:25;12.08;61.94
49489;SHT31;35382;51.484;11.476;2023-06-05T01:06:07;12.10;61.02
49489;SHT31;35382;51.484;11.476;2023-06-05T01:07:48;12.07;61.17
49489;SHT31;35382;51.484;11.476;2023-06-05T01:09:29;12.03;61.44
49489;SHT31;35382;51.484;11.476;2023-06-05T01:11:35;12.16;60.98
49489;SHT31;35382;51.484;11.476;2023-06-05T01:13:24;12.08;61.00
49489;SHT31;35382;51.484;11.476;2023-06-05T01:15:06;12.13;60.88
49489;SHT31;35382;51.484;11.476;2023-06-05T01:16:50;11.94;61.55
49489;SHT31;35382;51.484;11.476;2023-06-05T01:18:34;11.98;61.30
49489;SHT31;35382;51.484;11.476;2023-06-05T01:20:15;12.00;61.15
49489;SHT31;35382;51.484;11.476;2023-06-05T01:21:59;11.89;61.90
49489;SHT31;35382;51.484;11.476;2023-06-05T01:23:42;11.90;62.03
49489;SHT31;35382;51.484;11.476;2023-06-05T01:25:25;11.91;60.56
49489;SHT31;35382;51.484;11.476;2023-06-05T01:28:51;11.87;61.00
49489;SHT31;35382;51.484;11.476;2023-06-05T01:30:38;11.93;60.82
49489;SHT31;35382;51.484;11.476;2023-06-05T01:32:56;11.97;60.21
49489;SHT31;35382;51.484;11.476;2023-06-05T01:34:38;11.77;61.78
49489;SHT31;35382;51.484;11.476;2023-06-05T01:36:24;11.97;59.85
49489;SHT31;35382;51.484;11.476;2023-06-05T01:38:06;11.94;60.64
49489;SHT31;35382;51.484;11.476;2023-06-05T01:39:51;11.84;61.49
49489;SHT31;35382;51.484;11.476;2023-06-05T01:41:33;11.84;61.56
49489;SHT31;35382;51.484;11.476;2023-06-05T01:43:15;11.90;61.26
49489;SHT31;35382;51.484;11.476;2023-06-05T01:44:59;11.73;61.30
49489;SHT31;35382;51.484;11.476;2023-06-05T01:46:40;11.77;62.22
49489;SHT31;35382;51.484;11.476;2023-06-05T01:48:22;11.76;61.86
49489;SHT31;35382;51.484;11.476;2023-06-05T01:50:05;11.66;61.55
49489;SHT31;35382;51.484;11.476;2023-06-05T01:51:47;11.87;61.19
49489;SHT31;35382;51.484;11.476;2023-06-05T01:53:28;11.76;61.21
49489;SHT31;35382;51.484;11.476;2023-06-05T01:55:16;11.84;60.58
49489;SHT31;35382;51.484;11.476;2023-06-05T01:56:57;11.80;61.87
49489;SHT31;35382;51.484;11.476;2023-06-05T01:58:38;11.87;60.82
49489;SHT31;35382;51.484;11.476;2023-06-05T02:00:20;11.80;61.89
49489;SHT31;35382;51.484;11.476;2023-06-05T02:02:01;11.86;61.08
49489;SHT31;35382;51.484;11.476;2023-06-05T02:03:44;11.77;61.53
49489;SHT31;35382;51.484;11.476;2023-06-05T02:05:28;11.79;61.08
49489;SHT31;35382;51.484;11.476;2023-06-05T02:07:10;11.83;60.95
49489;SHT31;35382;51.484;11.476;2023-06-05T02:08:51;11.77;61.53
49489;SHT31;35382;51.484;11.476;2023-06-05T02:10:32;11.86;60.66
49489;SHT31;35382;51.484;11.476;2023-06-05T02:12:13;11.80;61.05
49489;SHT31;35382;51.484;11.476;2023-06-05T02:13:56;12.03;59.97
49489;SHT31;35382;51.484;11.476;2023-06-05T02:15:37;12.06;60.33
49489;SHT31;35382;51.484;11.476;2023-06-05T02:17:18;12.01;60.37
49489;SHT31;35382;51.484;11.476;2023-06-05T02:18:59;11.97;60.84
49489;SHT31;35382;51.484;11.476;2023-06-05T02:20:44;11.98;60.08
49489;SHT31;35382;51.484;11.476;2023-06-05T02:22:25;11.98;60.29
49489;SHT31;35382;51.484;11.476;2023-06-05T02:24:06;12.06;60.07
49489;SHT31;35382;51.484;11.476;2023-06-05T02:25:47;12.14;59.99
49489;SHT31;35382;51.484;11.476;2023-06-05T02:27:31;12.04;60.09
49489;SHT31;35382;51.484;11.476;2023-06-05T02:29:12;12.00;60.74
49489;SHT31;35382;51.484;11.476;2023-06-05T02:30:54;11.94;59.98
49489;SHT31;35382;51.484;11.476;2023-06-05T02:32:35;12.06;59.80
49489;SHT31;35382;51.484;11.476;2023-06-05T02:34:17;11.97;59.98
49489;SHT31;35382;51.484;11.476;2023-06-05T02:35:58;11.97;60.50
49489;SHT31;35382;51.484;11.476;2023-06-05T02:37:40;12.00;60.02
49489;SHT31;35382;51.484;11.476;2023-06-05T02:39:25;11.89;60.39
49489;SHT31;35382;51.484;11.476;2023-06-05T02:41:06;11.93;61.43
49489;SHT31;35382;51.484;11.476;2023-06-05T02:42:49;11.87;60.00
49489;SHT31;35382;51.484;11.476;2023-06-05T02:44:31;11.90;60.75
49489;SHT31;35382;51.484;11.476;2023-06-05T02:46:14;11.98;60.15
49489;SHT31;35382;51.484;11.476;2023-06-05T02:47:56;12.00;60.32
49489;SHT31;35382;51.484;11.476;2023-06-05T02:49:37;12.03;60.29
49489;SHT31;35382;51.484;11.476;2023-06-05T02:51:18;12.14;59.32
49489;SHT31;35382;51.484;11.476;2023-06-05T02:53:01;12.14;59.23
49489;SHT31;35382;51.484;11.476;2023-06-05T02:54:47;12.14;59.58
49489;SHT31;35382;51.484;11.476;2023-06-05T02:56:28;12.14;59.30
49489;SHT31;35382;51.484;11.476;2023-06-05T02:58:10;12.36;58.65
49489;SHT31;35382;51.484;11.476;2023-06-05T02:59:59;12.36;58.62
49489;SHT31;35382;51.484;11.476;2023-06-05T03:01:43;12.36;58.68
49489;SHT31;35382;51.484;11.476;2023-06-05T03:03:32;12.33;58.82
49489;SHT31;35382;51.484;11.476;2023-06-05T03:05:17;12.24;59.53
49489;SHT31;35382;51.484;11.476;2023-06-05T03:07:12;12.31;59.41
49489;SHT31;35382;51.484;11.476;2023-06-05T03:08:56;12.24;59.56
49489;SHT31;35382;51.484;11.476;2023-06-05T03:10:37;12.28;58.59
49489;SHT31;35382;51.484;11.476;2023-06-05T03:12:19;12.28;58.90
49489;SHT31;35382;51.484;11.476;2023-06-05T03:14:00;12.34;58.77
49489;SHT31;35382;51.484;11.476;2023-06-05T03:15:45;12.27;59.30
49489;SHT31;35382;51.484;11.476;2023-06-05T03:17:30;12.31;59.32
49489;SHT31;35382;51.484;11.476;2023-06-05T03:19:12;12.26;59.89
49489;SHT31;35382;51.484;11.476;2023-06-05T03:20:54;12.28;58.71
49489;SHT31;35382;51.484;11.476;2023-06-05T03:22:36;12.26;59.92
49489;SHT31;35382;51.484;11.476;2023-06-05T03:24:17;12.31;60.14
49489;SHT31;35382;51.484;11.476;2023-06-05T03:26:04;12.30;59.60
49489;SHT31;35382;51.484;11.476;2023-06-05T03:27:45;12.37;59.47
49489;SHT31;35382;51.484;11.476;2023-06-05T03:29:27;12.37;59.36
49489;SHT31;35382;51.484;11.476;2023-06-05T03:31:08;12.44;58.88
49489;SHT31;35382;51.484;11.476;2023-06-05T03:32:54;12.28;59.58
49489;SHT31;35382;51.484;11.476;2023-06-05T03:34:35;12.07;61.03
49489;SHT31;35382;51.484;11.476;2023-06-05T03:36:17;11.97;61.96
49489;SHT31;35382;51.484;11.476;2023-06-05T03:37:59;11.97;62.23
49489;SHT31;35382;51.484;11.476;2023-06-05T03:39:40;12.00;63.14
49489;SHT31;35382;51.484;11.476;2023-06-05T03:41:21;11.97;62.61
49489;SHT31;35382;51.484;11.476;2023-06-05T03:43:02;12.03;62.73
49489;SHT31;35382;51.484;11.476;2023-06-05T03:44:46;11.84;63.19
49489;SHT31;35382;51.484;11.476;2023-06-05T03:46:28;11.84;64.26
49489;SHT31;35382;51.484;11.476;2023-06-05T03:48:10;11.70;64.47
49489;SHT31;35382;51.484;11.476;2023-06-05T03:49:55;11.65;62.64
49489;SHT31;35382;51.484;11.476;2023-06-05T03:51:36;11.70;64.93
49489;SHT31;35382;51.484;11.476;2023-06-05T03:53:17;11.72;64.30
49489;SHT31;35382;51.484;11.476;2023-06-05T03:54:59;11.76;64.17
49489;SHT31;35382;51.484;11.476;2023-06-05T03:56:44;12.04;63.25
49489;SHT31;35382;51.484;11.476;2023-06-05T03:58:30;12.67;63.43
49489;SHT31;35382;51.484;11.476;2023-06-05T04:00:12;13.23;62.01
49489;SHT31;35382;51.484;11.476;2023-06-05T04:02:02;13.65;60.26
49489;SHT31;35382;51.484;11.476;2023-06-05T04:03:48;13.66;59.85
49489;SHT31;35382;51.484;11.476;2023-06-05T04:05:28;13.79;59.25
49489;SHT31;35382;51.484;11.476;2023-06-05T04:07:10;13.84;57.61
49489;SHT31;35382;51.484;11.476;2023-06-05T04:08:53;14.20;59.75
49489;SHT31;35382;51.484;11.476;2023-06-05T04:10:35;14.37;58.28
49489;SHT31;35382;51.484;11.476;2023-06-05T04:12:16;14.56;56.28
49489;SHT31;35382;51.484;11.476;2023-06-05T04:14:00;14.75;57.63
49489;SHT31;35382;51.484;11.476;2023-06-05T04:15:41;15.11;55.87
49489;SHT31;35382;51.484;11.476;2023-06-05T04:17:25;15.35;54.93
49489;SHT31;35382;51.484;11.476;2023-06-05T04:19:06;15.32;55.05
49489;SHT31;35382;51.484;11.476;2023-06-05T04:20:49;15.56;55.74
49489;SHT31;35382;51.484;11.476;2023-06-05T04:22:31;15.52;54.55
49489;SHT31;35382;51.484;11.476;2023-06-05T04:24:12;15.76;55.40
49489;SHT31;35382;51.484;11.476;2023-06-05T04:25:53;15.93;54.59
49489;SHT31;35382;51.484;11.476;2023-06-05T04:27:35;16.03;54.32
49489;SHT31;35382;51.484;11.476;2023-06-05T04:29:16;15.86;53.50
49489;SHT31;35382;51.484;11.476;2023-06-05T04:30:57;16.16;55.95
49489;SHT31;35382;51.484;11.476;2023-06-05T04:32:39;15.96;52.14
49489;SHT31;35382;51.484;11.476;2023-06-05T04:34:22;15.99;52.87
49489;SHT31;35382;51.484;11.476;2023-06-05T04:36:03;16.14;53.02
49489;SHT31;35382;51.484;11.476;2023-06-05T04:37:46;16.23;54.66
49489;SHT31;35382;51.484;11.476;2023-06-05T04:39:28;16.14;53.63
49489;SHT31;35382;51.484;11.476;2023-06-05T04:41:09;16.29;51.95
49489;SHT31;35382;51.484;11.476;2023-06-05T04:42:51;16.16;52.59
49489;SHT31;35382;51.484;11.476;2023-06-05T04:44:34;16.53;52.29
49489;SHT31;35382;51.484;11.476;2023-06-05T04:46:16;16.44;53.38
49489;SHT31;35382;51.484;11.476;2023-06-05T04:47:57;16.41;52.22
49489;SHT31;35382;51.484;11.476;2023-06-05T04:49:38;16.41;52.11
49489;SHT31;35382;51.484;11.476;2023-06-05T04:51:19;16.43;52.23
49489;SHT31;35382;51.484;11.476;2023-06-05T04:53:00;16.70;52.87
49489;SHT31;35382;51.484;11.476;2023-06-05T04:54:41;16.68;52.60
49489;SHT31;35382;51.484;11.476;2023-06-05T04:56:22;16.80;52.30
49489;SHT31;35382;51.484;11.476;2023-06-05T04:58:04;16.98;51.78
49489;SHT31;35382;51.484;11.476;2023-06-05T04:59:46;16.98;51.67
49489;SHT31;35382;51.484;11.476;2023-06-05T05:01:29;17.01;51.65
49489;SHT31;35382;51.484;11.476;2023-06-05T05:03:10;16.94;50.95
49489;SHT31;35382;51.484;11.476;2023-06-05T05:04:58;17.07;52.24
49489;SHT31;35382;51.484;11.476;2023-06-05T05:06:39;17.12;50.77
49489;SHT31;35382;51.484;11.476;2023-06-05T05:08:29;17.32;51.47
49489;SHT31;35382;51.484;11.476;2023-06-05T05:10:13;17.25;50.07
49489;SHT31;35382;51.484;11.476;2023-06-05T05:11:54;17.38;51.99
49489;SHT31;35382;51.484;11.476;2023-06-05T05:13:36;17.32;50.84
49489;SHT31;35382;51.484;11.476;2023-06-05T05:15:18;17.31;50.23
49489;SHT31;35382;51.484;11.476;2023-06-05T05:17:00;17.24;51.06
49489;SHT31;35382;51.484;11.476;2023-06-05T05:18:45;17.34;53.23
49489;SHT31;35382;51.484;11.476;2023-06-05T05:20:26;17.32;50.77
49489;SHT31;35382;51.484;11.476;2023-06-05T05:22:08;17.42;51.62
49489;SHT31;35382;51.484;11.476;2023-06-05T05:23:50;17.36;49.49
49489;SHT31;35382;51.484;11.476;2023-06-05T05:25:31;17.31;51.15
49489;SHT31;35382;51.484;11.476;2023-06-05T05:27:13;17.52;51.26
49489;SHT31;35382;51.484;11.476;2023-06-05T05:28:59;17.48;51.47
49489;SHT31;35382;51.484;11.476;2023-06-05T05:30:40;17.41;51.43
49489;SHT31;35382;51.484;11.476;2023-06-05T05:32:21;17.32;49.63
49489;SHT31;35382;51.484;11.476;2023-06-05T05:34:02;17.46;50.79
49489;SHT31;35382;51.484;11.476;2023-06-05T05:35:46;17.49;51.77
49489;SHT31;35382;51.484;11.476;2023-06-05T05:37:30;17.69;51.98
49489;SHT31;35382;51.484;11.476;2023-06-05T05:39:13;17.58;49.76
49489;SHT31;35382;51.484;11.476;2023-06-05T05:40:56;17.81;49.86
49489;SHT31;35382;51.484;11.476;2023-06-05T05:42:43;17.90;52.39
49489;SHT31;35382;51.484;11.476;2023-06-05T05:44:28;17.75;50.72
49489;SHT31;35382;51.484;11.476;2023-06-05T05:46:09;18.05;51.28
49489;SHT31;35382;51.484;11.476;2023-06-05T05:47:52;18.12;51.22
49489;SHT31;35382;51.484;11.476;2023-06-05T05:49:33;18.12;51.96
49489;SHT31;35382;51.484;11.476;2023-06-05T05:51:17;18.19;52.01
49489;SHT31;35382;51.484;11.476;2023-06-05T05:52:58;18.50;50.74
49489;SHT31;35382;51.484;11.476;2023-06-05T05:54:39;18.54;50.38
49489;SHT31;35382;51.484;11.476;2023-06-05T05:56:20;18.51;51.19
49489;SHT31;35382;51.484;11.476;2023-06-05T05:58:01;18.57;49.72
49489;SHT31;35382;51.484;11.476;2023-06-05T05:59:42;18.59;49.51
49489;SHT31;35382;51.484;11.476;2023-06-05T06:01:25;18.65;52.18
49489;SHT31;35382;51.484;11.476;2023-06-05T06:03:06;18.93;48.18
49489;SHT31;35382;51.484;11.476;2023-06-05T06:04:48;18.77;49.67
49489;SHT31;35382;51.484;11.476;2023-06-05T06:06:29;18.91;49.38
49489;SHT31;35382;51.484;11.476;2023-06-05T06:08:11;18.87;48.96
49489;SHT31;35382;51.484;11.476;2023-06-05T06:09:51;19.14;48.37
49489;SHT31;35382;51.484;11.476;2023-06-05T06:11:32;19.24;50.78
49489;SHT31;35382;51.484;11.476;2023-06-05T06:13:14;19.35;49.48
49489;SHT31;35382;51.484;11.476;2023-06-05T06:14:55;19.18;48.74
49489;SHT31;35382;51.484;11.476;2023-06-05T06:16:38;19.45;50.26
49489;SHT31;35382;51.484;11.476;2023-06-05T06:18:19;19.50;48.90
49489;SHT31;35382;51.484;11.476;2023-06-05T06:20:00;19.65;49.26
49489;SHT31;35382;51.484;11.476;2023-06-05T06:21:43;19.71;47.50
49489;SHT31;35382;51.484;11.476;2023-06-05T06:23:24;19.86;49.62
49489;SHT31;35382;51.484;11.476;2023-06-05T06:25:09;20.00;48.84
49489;SHT31;35382;51.484;11.476;2023-06-05T06:26:51;20.15;49.03
49489;SHT31;35382;51.484;11.476;2023-06-05T06:28:34;19.99;46.96
49489;SHT31;35382;51.484;11.476;2023-06-05T06:30:15;20.29;47.10
49489;SHT31;35382;51.484;11.476;2023-06-05T06:31:56;20.37;46.77
49489;SHT31;35382;51.484;11.476;2023-06-05T06:33:37;20.37;46.32
49489;SHT31;35382;51.484;11.476;2023-06-05T06:35:20;20.53;46.21
49489;SHT31;35382;51.484;11.476;2023-06-05T06:37:04;20.64;45.78
49489;SHT31;35382;51.484;11.476;2023-06-05T06:38:45;20.54;45.83
49489;SHT31;35382;51.484;11.476;2023-06-05T06:40:26;20.69;46.89
49489;SHT31;35382;51.484;11.476;2023-06-05T06:42:10;20.76;46.63
49489;SHT31;35382;51.484;11.476;2023-06-05T06:43:53;20.98;48.72
49489;SHT31;35382;51.484;11.476;2023-06-05T06:45:36;21.28;47.42
49489;SHT31;35382;51.484;11.476;2023-06-05T06:47:20;21.01;46.19
49489;SHT31;35382;51.484;11.476;2023-06-05T06:49:03;20.94;46.40
49489;SHT31;35382;51.484;11.476;2023-06-05T06:50:44;21.00;45.49
49489;SHT31;35382;51.484;11.476;2023-06-05T06:52:25;21.10;44.87
49489;SHT31;35382;51.484;11.476;2023-06-05T06:54:06;21.37;45.80
49489;SHT31;35382;51.484;11.476;2023-06-05T06:55:47;21.45;45.57
49489;SHT31;35382;51.484;11.476;2023-06-05T06:57:28;21.50;44.08
49489;SHT31;35382;51.484;11.476;2023-06-05T06:59:12;21.42;44.53
49489;SHT31;35382;51.484;11.476;2023-06-05T07:00:54;21.45;44.45
49489;SHT31;35382;51.484;11.476;2023-06-05T07:02:36;21.51;42.93
49489;SHT31;35382;51.484;11.476;2023-06-05T07:04:20;21.50;45.82
49489;SHT31;35382;51.484;11.476;2023-06-05T07:06:02;21.68;46.13
49489;SHT31;35382;51.484;11.476;2023-06-05T07:07:46;21.59;43.64
49489;SHT31;35382;51.484;11.476;2023-06-05T07:09:28;21.57;44.42
49489;SHT31;35382;51.484;11.476;2023-06-05T07:11:10;21.62;44.28
49489;SHT31;35382;51.484;11.476;2023-06-05T07:12:51;21.69;44.58
49489;SHT31;35382;51.484;11.476;2023-06-05T07:14:32;21.85;44.23
49489;SHT31;35382;51.484;11.476;2023-06-05T07:16:16;21.92;43.88
49489;SHT31;35382;51.484;11.476;2023-06-05T07:17:57;22.10;43.59
49489;SHT31;35382;51.484;11.476;2023-06-05T07:19:39;22.20;43.09
49489;SHT31;35382;51.484;11.476;2023-06-05T07:21:20;22.38;43.02
49489;SHT31;35382;51.484;11.476;2023-06-05T07:23:01;22.66;43.25
49489;SHT31;35382;51.484;11.476;2023-06-05T07:24:42;22.56;41.52
49489;SHT31;35382;51.484;11.476;2023-06-05T07:26:23;22.60;41.11
49489;SHT31;35382;51.484;11.476;2023-06-05T07:28:09;22.74;42.36
49489;SHT31;35382;51.484;11.476;2023-06-05T07:29:52;22.59;41.34
49489;SHT31;35382;51.484;11.476;2023-06-05T07:31:33;22.69;41.21
49489;SHT31;35382;51.484;11.476;2023-06-05T07:33:15;22.73;42.63
49489;SHT31;35382;51.484;11.476;2023-06-05T07:34:56;22.60;40.56
49489;SHT31;35382;51.484;11.476;2023-06-05T07:36:38;22.96;42.51
49489;SHT31;35382;51.484;11.476;2023-06-05T07:38:19;22.84;41.21
49489;SHT31;35382;51.484;11.476;2023-06-05T07:39:59;22.87;41.64
49489;SHT31;35382;51.484;11.476;2023-06-05T07:41:41;22.99;41.62
49489;SHT31;35382;51.484;11.476;2023-06-05T07:43:21;23.11;42.74
49489;SHT31;35382;51.484;11.476;2023-06-05T07:45:03;22.97;41.73
49489;SHT31;35382;51.484;11.476;2023-06-05T07:46:45;23.10;41.19
49489;SHT31;35382;51.484;11.476;2023-06-05T07:48:26;23.26;44.01
49489;SHT31;35382;51.484;11.476;2023-06-05T07:50:07;23.37;40.99
49489;SHT31;35382;51.484;11.476;2023-06-05T07:51:49;23.57;42.05
49489;SHT31;35382;51.484;11.476;2023-06-05T07:53:31;23.78;41.81
49489;SHT31;35382;51.484;11.476;2023-06-05T07:55:12;23.60;40.16
49489;SHT31;35382;51.484;11.476;2023-06-05T07:56:53;23.61;40.08
49489;SHT31;35382;51.484;11.476;2023-06-05T07:58:34;23.60;41.75
49489;SHT31;35382;51.484;11.476;2023-06-05T08:00:16;23.41;40.51
49489;SHT31;35382;51.484;11.476;2023-06-05T08:01:58;23.53;39.79
49489;SHT31;35382;51.484;11.476;2023-06-05T08:03:40;23.43;42.19
49489;SHT31;35382;51.484;11.476;2023-06-05T08:05:24;23.14;41.22
49489;SHT31;35382;51.484;11.476;2023-06-05T08:07:05;22.90;41.85
49489;SHT31;35382;51.484;11.476;2023-06-05T08:08:46;23.18;40.79
49489;SHT31;35382;51.484;11.476;2023-06-05T08:10:27;23.11;40.03
49489;SHT31;35382;51.484;11.476;2023-06-05T08:12:08;23.11;40.02
49489;SHT31;35382;51.484;11.476;2023-06-05T08:13:49;23.40;41.07
49489;SHT31;35382;51.484;11.476;2023-06-05T08:15:30;23.21;37.71
49489;SHT31;35382;51.484;11.476;2023-06-05T08:17:11;23.40;39.54
49489;SHT31;35382;51.484;11.476;2023-06-05T08:18:52;23.31;38.83
49489;SHT31;35382;51.484;11.476;2023-06-05T08:20:32;23.47;39.92
49489;SHT31;35382;51.484;11.476;2023-06-05T08:22:13;23.55;38.08
49489;SHT31;35382;51.484;11.476;2023-06-05T08:23:54;23.71;40.86
49489;SHT31;35382;51.484;11.476;2023-06-05T08:25:35;23.81;40.95
49489;SHT31;35382;51.484;11.476;2023-06-05T08:27:17;23.82;40.70
49489;SHT31;35382;51.484;11.476;2023-06-05T08:28:59;23.88;41.54
49489;SHT31;35382;51.484;11.476;2023-06-05T08:30:41;24.17;40.36
49489;SHT31;35382;51.484;11.476;2023-06-05T08:32:22;24.18;40.73
49489;SHT31;35382;51.484;11.476;2023-06-05T08:34:03;24.29;38.35
49489;SHT31;35382;51.484;11.476;2023-06-05T08:35:44;24.47;40.43
49489;SHT31;35382;51.484;11.476;2023-06-05T08:37:25;24.32;38.80
49489;SHT31;35382;51.484;11.476;2023-06-05T08:39:08;24.18;38.92
49489;SHT31;35382;51.484;11.476;2023-06-05T08:41:00;23.98;38.81
49489;SHT31;35382;51.484;11.476;2023-06-05T08:42:41;23.98;38.31
49489;SHT31;35382;51.484;11.476;2023-06-05T08:44:22;24.21;39.02
49489;SHT31;35382;51.484;11.476;2023-06-05T08:46:05;24.24;37.26
49489;SHT31;35382;51.484;11.476;2023-06-05T08:47:49;24.35;40.39
49489;SHT31;35382;51.484;11.476;2023-06-05T08:49:31;24.42;38.74
49489;SHT31;35382;51.484;11.476;2023-06-05T08:51:18;24.18;37.72
49489;SHT31;35382;51.484;11.476;2023-06-05T08:52:59;24.36;38.67
49489;SHT31;35382;51.484;11.476;2023-06-05T08:54:40;24.12;38.68
49489;SHT31;35382;51.484;11.476;2023-06-05T08:56:23;24.47;39.01
49489;SHT31;35382;51.484;11.476;2023-06-05T08:58:04;24.15;37.02
49489;SHT31;35382;51.484;11.476;2023-06-05T08:59:46;23.98;36.79
49489;SHT31;35382;51.484;11.476;2023-06-05T09:01:27;24.18;38.13
49489;SHT31;35382;51.484;11.476;2023-06-05T09:03:10;24.45;39.79
49489;SHT31;35382;51.484;11.476;2023-06-05T09:04:53;24.42;38.28
49489;SHT31;35382;51.484;11.476;2023-06-05T09:06:34;24.71;40.29
49489;SHT31;35382;51.484;11.476;2023-06-05T09:08:17;24.95;40.03
49489;SHT31;35382;51.484;11.476;2023-06-05T09:09:58;24.66;36.75
49489;SHT31;35382;51.484;11.476;2023-06-05T09:11:39;24.18;35.92
49489;SHT31;35382;51.484;11.476;2023-06-05T09:13:20;23.98;36.49
49489;SHT31;35382;51.484;11.476;2023-06-05T09:15:21;23.86;37.21
49489;SHT31;35382;51.484;11.476;2023-06-05T09:17:12;24.19;38.07
49489;SHT31;35382;51.484;11.476;2023-06-05T09:18:57;24.69;38.01
49489;SHT31;35382;51.484;11.476;2023-06-05T09:20:40;24.72;38.07
49489;SHT31;35382;51.484;11.476;2023-06-05T09:22:32;25.03;39.30
49489;SHT31;35382;51.484;11.476;2023-06-05T09:24:19;24.61;40.50
49489;SHT31;35382;51.484;11.476;2023-06-05T09:26:03;24.39;37.50
49489;SHT31;35382;51.484;11.476;2023-06-05T09:28:05;24.24;37.75
49489;SHT31;35382;51.484;11.476;2023-06-05T09:29:46;24.01;37.54
49489;SHT31;35382;51.484;11.476;2023-06-05T09:31:40;24.32;38.78
49489;SHT31;35382;51.484;11.476;2023-06-05T09:33:21;24.35;37.05
49489;SHT31;35382;51.484;11.476;2023-06-05T09:35:03;24.14;37.42
49489;SHT31;35382;51.484;11.476;2023-06-05T09:36:46;24.30;38.52
49489;SHT31;35382;51.484;11.476;2023-06-05T09:38:27;24.61;37.65
49489;SHT31;35382;51.484;11.476;2023-06-05T09:40:08;24.66;35.08
49489;SHT31;35382;51.484;11.476;2023-06-05T09:41:56;24.83;36.49
49489;SHT31;35382;51.484;11.476;2023-06-05T09:43:38;25.06;38.40
49489;SHT31;35382;51.484;11.476;2023-06-05T09:45:19;25.22;35.92
49489;SHT31;35382;51.484;11.476;2023-06-05T09:47:08;25.20;34.91
49489;SHT31;35382;51.484;11.476;2023-06-05T09:48:52;24.19;34.99
49489;SHT31;35382;51.484;11.476;2023-06-05T09:50:40;24.19;36.00
49489;SHT31;35382;51.484;11.476;2023-06-05T09:52:22;24.47;35.13
49489;SHT31;35382;51.484;11.476;2023-06-05T09:54:03;24.69;36.70
49489;SHT31;35382;51.484;11.476;2023-06-05T09:55:44;24.96;37.12
49489;SHT31;35382;51.484;11.476;2023-06-05T09:57:27;24.15;35.25
49489;SHT31;35382;51.484;11.476;2023-06-05T09:59:13;24.12;36.20
49489;SHT31;35382;51.484;11.476;2023-06-05T10:00:55;23.97;36.46
49489;SHT31;35382;51.484;11.476;2023-06-05T10:02:40;23.79;37.80
49489;SHT31;35382;51.484;11.476;2023-06-05T10:04:23;23.40;38.09
49489;SHT31;35382;51.484;11.476;2023-06-05T10:06:06;23.65;37.31
49489;SHT31;35382;51.484;11.476;2023-06-05T10:07:47;23.79;36.42
49489;SHT31;35382;51.484;11.476;2023-06-05T10:09:35;23.94;36.62
49489;SHT31;35382;51.484;11.476;2023-06-05T10:11:17;24.08;36.84
49489;SHT31;35382;51.484;11.476;2023-06-05T10:12:58;24.49;38.74
49489;SHT31;35382;51.484;11.476;2023-06-05T10:14:41;24.43;36.81
49489;SHT31;35382;51.484;11.476;2023-06-05T10:16:22;23.89;37.64
49489;SHT31;35382;51.484;11.476;2023-06-05T10:18:03;23.40;36.04
49489;SHT31;35382;51.484;11.476;2023-06-05T10:19:45;23.20;37.62
49489;SHT31;35382;51.484;11.476;2023-06-05T10:21:26;23.16;36.95
49489;SHT31;35382;51.484;11.476;2023-06-05T10:23:09;23.14;36.45
49489;SHT31;35382;51.484;11.476;2023-06-05T10:24:57;23.11;36.44
49489;SHT31;35382;51.484;11.476;2023-06-05T10:28:52;23.08;38.17
49489;SHT31;35382;51.484;11.476;2023-06-05T10:31:03;23.48;38.99
49489;SHT31;35382;51.484;11.476;2023-06-05T10:33:11;24.05;38.24
49489;SHT31;35382;51.484;11.476;2023-06-05T10:35:15;24.35;37.94
49489;SHT31;35382;51.484;11.476;2023-06-05T10:38:46;24.12;37.58
49489;SHT31;35382;51.484;11.476;2023-06-05T10:40:27;24.00;37.93
49489;SHT31;35382;51.484;11.476;2023-06-05T10:42:09;23.61;38.06
49489;SHT31;35382;51.484;11.476;2023-06-05T10:43:52;23.55;37.15